sensor_id;sensor_type;location;lat;lon;timestamp;pressure;altitude;pressure_sealevel;temperature;humidity
52719;BME280;38616;42.140;24.760;2022-12-07T00:00:27;99798.22;;;7.63;70.77
52719;BME280;38616;42.140;24.760;2022-12-07T00:02:52;99805.13;;;7.81;70.01
52719;BME280;38616;42.140;24.760;2022-12-07T00:05:17;99801.91;;;7.84;70.59
52719;BME280;38616;42.140;24.760;2022-12-07T00:07:43;99802.25;;;7.88;70.14
52719;BME280;38616;42.140;24.760;2022-12-07T00:10:08;99803.63;;;7.95;69.51
52719;BME280;38616;42.140;24.760;2022-12-07T00:12:34;99808.78;;;7.97;69.82
52719;BME280;38616;42.140;24.760;2022-12-07T00:14:59;99806.63;;;7.94;69.58
52719;BME280;38616;42.140;24.760;2022-12-07T00:17:24;99804.09;;;7.87;68.77
52719;BME280;38616;42.140;24.760;2022-12-07T00:19:50;99803.69;;;7.68;69.92
52719;BME280;38616;42.140;24.760;2022-12-07T00:22:15;99797.19;;;7.69;70.14
52719;BME280;38616;42.140;24.760;2022-12-07T00:24:41;99799.63;;;7.71;69.87
52719;BME280;38616;42.140;24.760;2022-12-07T00:27:06;99797.03;;;7.81;69.32
52719;BME280;38616;42.140;24.760;2022-12-07T00:29:31;99797.06;;;7.86;68.69
52719;BME280;38616;42.140;24.760;2022-12-07T00:31:57;99798.59;;;7.77;68.24
52719;BME280;38616;42.140;24.760;2022-12-07T00:34:22;99806.88;;;7.65;69.24
52719;BME280;38616;42.140;24.760;2022-12-07T00:36:48;99814.94;;;7.60;69.35
52719;BME280;38616;42.140;24.760;2022-12-07T00:39:14;99808.13;;;7.79;68.27
52719;BME280;38616;42.140;24.760;2022-12-07T00:41:39;99803.72;;;7.73;68.18
52719;BME280;38616;42.140;24.760;2022-12-07T00:44:05;99795.47;;;7.58;68.60
52719;BME280;38616;42.140;24.760;2022-12-07T00:46:30;99798.94;;;7.80;68.53
52719;BME280;38616;42.140;24.760;2022-12-07T00:48:56;99804.13;;;7.60;68.61
52719;BME280;38616;42.140;24.760;2022-12-07T00:51:23;99795.47;;;7.58;69.14
52719;BME280;38616;42.140;24.760;2022-12-07T00:53:49;99794.88;;;7.83;68.12
52719;BME280;38616;42.140;24.760;2022-12-07T00:56:18;99791.19;;;7.34;68.93
52719;BME280;38616;42.140;24.760;2022-12-07T00:58:44;99804.84;;;7.50;69.27
52719;BME280;38616;42.140;24.760;2022-12-07T01:01:10;99796.81;;;7.60;68.90
52719;BME280;38616;42.140;24.760;2022-12-07T01:03:36;99800.66;;;7.64;68.87
52719;BME280;38616;42.140;24.760;2022-12-07T01:06:03;99787.91;;;7.60;68.82
52719;BME280;38616;42.140;24.760;2022-12-07T01:08:28;99788.09;;;7.53;68.94
52719;BME280;38616;42.140;24.760;2022-12-07T01:11:02;99793.09;;;7.39;69.20
52719;BME280;38616;42.140;24.760;2022-12-07T01:13:29;99795.81;;;7.39;68.94
52719;BME280;38616;42.140;24.760;2022-12-07T01:15:57;99785.78;;;7.34;69.07
52719;BME280;38616;42.140;24.760;2022-12-07T01:18:25;99784.59;;;7.52;68.63
52719;BME280;38616;42.140;24.760;2022-12-07T01:23:29;99784.19;;;7.38;68.49
52719;BME280;38616;42.140;24.760;2022-12-07T01:26:00;99781.69;;;7.32;68.91
52719;BME280;38616;42.140;24.760;2022-12-07T01:28:25;99779.69;;;7.49;68.49
52719;BME280;38616;42.140;24.760;2022-12-07T01:33:32;99775.66;;;7.52;68.11
52719;BME280;38616;42.140;24.760;2022-12-07T01:36:07;99765.50;;;7.37;68.03
52719;BME280;38616;42.140;24.760;2022-12-07T01:38:33;99765.72;;;7.30;68.23
52719;BME280;38616;42.140;24.760;2022-12-07T01:41:00;99763.38;;;7.39;68.31
52719;BME280;38616;42.140;24.760;2022-12-07T01:43:27;99765.00;;;7.40;68.79
52719;BME280;38616;42.140;24.760;2022-12-07T01:45:54;99755.81;;;7.41;68.67
52719;BME280;38616;42.140;24.760;2022-12-07T01:48:27;99751.59;;;7.50;68.58
52719;BME280;38616;42.140;24.760;2022-12-07T01:50:55;99752.94;;;7.48;67.82
52719;BME280;38616;42.140;24.760;2022-12-07T01:53:25;99746.03;;;7.35;68.15
52719;BME280;38616;42.140;24.760;2022-12-07T01:55:53;99748.00;;;7.39;69.07
52719;BME280;38616;42.140;24.760;2022-12-07T01:58:20;99755.59;;;7.43;68.31
52719;BME280;38616;42.140;24.760;2022-12-07T02:00:46;99752.72;;;7.54;67.96
52719;BME280;38616;42.140;24.760;2022-12-07T02:03:21;99757.22;;;7.44;68.50
52719;BME280;38616;42.140;24.760;2022-12-07T02:05:47;99757.81;;;7.51;68.25
52719;BME280;38616;42.140;24.760;2022-12-07T02:08:14;99751.38;;;7.57;68.38
52719;BME280;38616;42.140;24.760;2022-12-07T02:10:41;99751.88;;;7.54;68.14
52719;BME280;38616;42.140;24.760;2022-12-07T02:13:17;99756.28;;;7.60;68.42
52719;BME280;38616;42.140;24.760;2022-12-07T02:21:02;99746.47;;;7.54;68.15
52719;BME280;38616;42.140;24.760;2022-12-07T02:23:51;99742.41;;;7.51;68.74
52719;BME280;38616;42.140;24.760;2022-12-07T02:29:24;99728.47;;;7.32;68.46
52719;BME280;38616;42.140;24.760;2022-12-07T02:34:53;99730.19;;;7.44;67.87
52719;BME280;38616;42.140;24.760;2022-12-07T02:40:00;99723.66;;;7.39;67.14
52719;BME280;38616;42.140;24.760;2022-12-07T02:42:32;99724.41;;;7.35;67.45
52719;BME280;38616;42.140;24.760;2022-12-07T02:45:00;99734.81;;;7.21;67.39
52719;BME280;38616;42.140;24.760;2022-12-07T02:47:26;99732.53;;;7.35;66.98
52719;BME280;38616;42.140;24.760;2022-12-07T02:49:55;99728.97;;;7.29;67.22
52719;BME280;38616;42.140;24.760;2022-12-07T02:52:20;99724.41;;;7.35;66.63
52719;BME280;38616;42.140;24.760;2022-12-07T02:54:46;99721.03;;;7.22;66.72
52719;BME280;38616;42.140;24.760;2022-12-07T02:57:30;99714.00;;;7.21;66.97
52719;BME280;38616;42.140;24.760;2022-12-07T03:00:07;99713.97;;;7.16;67.53
52719;BME280;38616;42.140;24.760;2022-12-07T03:03:00;99700.09;;;7.35;66.39
52719;BME280;38616;42.140;24.760;2022-12-07T03:19:07;99717.13;;;7.35;66.81
52719;BME280;38616;42.140;24.760;2022-12-07T03:21:39;99713.66;;;6.85;67.72
52719;BME280;38616;42.140;24.760;2022-12-07T03:24:13;99716.91;;;6.87;67.81
52719;BME280;38616;42.140;24.760;2022-12-07T03:26:48;99717.13;;;7.08;67.94
52719;BME280;38616;42.140;24.760;2022-12-07T03:29:27;99720.13;;;7.39;67.26
52719;BME280;38616;42.140;24.760;2022-12-07T03:31:59;99719.06;;;7.40;67.27
52719;BME280;38616;42.140;24.760;2022-12-07T03:34:32;99719.84;;;7.35;67.49
52719;BME280;38616;42.140;24.760;2022-12-07T03:37:06;99715.59;;;7.45;67.29
52719;BME280;38616;42.140;24.760;2022-12-07T03:39:44;99722.91;;;7.82;65.97
52719;BME280;38616;42.140;24.760;2022-12-07T03:42:13;99724.00;;;7.48;66.61
52719;BME280;38616;42.140;24.760;2022-12-07T03:44:41;99719.66;;;7.47;66.66
52719;BME280;38616;42.140;24.760;2022-12-07T03:47:29;99709.69;;;7.53;66.58
52719;BME280;38616;42.140;24.760;2022-12-07T03:50:14;99718.09;;;7.51;66.46
52719;BME280;38616;42.140;24.760;2022-12-07T03:53:15;99719.09;;;7.45;67.21
52719;BME280;38616;42.140;24.760;2022-12-07T03:55:44;99712.63;;;7.46;67.08
52719;BME280;38616;42.140;24.760;2022-12-07T03:58:15;99704.06;;;7.54;66.33
52719;BME280;38616;42.140;24.760;2022-12-07T04:00:42;99699.81;;;7.31;66.90
52719;BME280;38616;42.140;24.760;2022-12-07T04:03:09;99710.28;;;7.28;67.19
52719;BME280;38616;42.140;24.760;2022-12-07T04:05:35;99702.56;;;7.36;66.18
52719;BME280;38616;42.140;24.760;2022-12-07T04:08:00;99704.38;;;7.31;65.62
52719;BME280;38616;42.140;24.760;2022-12-07T04:10:25;99709.78;;;7.31;65.80
52719;BME280;38616;42.140;24.760;2022-12-07T04:12:51;99704.66;;;7.29;65.83
52719;BME280;38616;42.140;24.760;2022-12-07T04:15:16;99706.97;;;7.20;65.55
52719;BME280;38616;42.140;24.760;2022-12-07T04:17:42;99707.84;;;7.26;66.14
52719;BME280;38616;42.140;24.760;2022-12-07T04:20:08;99702.03;;;7.12;66.32
52719;BME280;38616;42.140;24.760;2022-12-07T04:22:33;99694.41;;;7.04;66.18
52719;BME280;38616;42.140;24.760;2022-12-07T04:24:59;99701.53;;;7.15;66.72
52719;BME280;38616;42.140;24.760;2022-12-07T04:27:24;99696.63;;;7.12;65.95
52719;BME280;38616;42.140;24.760;2022-12-07T04:29:49;99692.28;;;7.06;66.32
52719;BME280;38616;42.140;24.760;2022-12-07T04:32:15;99684.56;;;6.92;66.15
52719;BME280;38616;42.140;24.760;2022-12-07T04:34:40;99687.22;;;6.87;66.61
52719;BME280;38616;42.140;24.760;2022-12-07T04:37:06;99697.84;;;6.99;66.60
52719;BME280;38616;42.140;24.760;2022-12-07T04:39:32;99694.41;;;7.04;65.83
52719;BME280;38616;42.140;24.760;2022-12-07T04:41:59;99694.97;;;6.84;66.70
52719;BME280;38616;42.140;24.760;2022-12-07T04:44:27;99690.72;;;6.88;67.52
52719;BME280;38616;42.140;24.760;2022-12-07T04:46:53;99687.00;;;6.94;67.54
52719;BME280;38616;42.140;24.760;2022-12-07T04:49:19;99692.78;;;7.03;66.92
52719;BME280;38616;42.140;24.760;2022-12-07T04:51:45;99684.81;;;6.91;66.73
52719;BME280;38616;42.140;24.760;2022-12-07T04:54:11;99686.03;;;6.78;67.44
52719;BME280;38616;42.140;24.760;2022-12-07T04:56:36;99683.34;;;7.05;66.90
52719;BME280;38616;42.140;24.760;2022-12-07T04:59:02;99689.56;;;7.06;66.95
52719;BME280;38616;42.140;24.760;2022-12-07T05:01:29;99689.34;;;6.85;67.45
52719;BME280;38616;42.140;24.760;2022-12-07T05:03:54;99695.00;;;7.11;66.39
52719;BME280;38616;42.140;24.760;2022-12-07T05:06:20;99686.88;;;7.06;66.41
52719;BME280;38616;42.140;24.760;2022-12-07T05:08:45;99704.09;;;7.00;67.01
52719;BME280;38616;42.140;24.760;2022-12-07T05:11:11;99697.91;;;7.04;67.29
52719;BME280;38616;42.140;24.760;2022-12-07T05:14:01;99707.69;;;6.83;67.34
52719;BME280;38616;42.140;24.760;2022-12-07T05:16:26;99704.78;;;6.90;67.47
52719;BME280;38616;42.140;24.760;2022-12-07T05:18:52;99703.53;;;6.98;67.79
52719;BME280;38616;42.140;24.760;2022-12-07T05:21:17;99700.91;;;7.08;67.29
52719;BME280;38616;42.140;24.760;2022-12-07T05:23:43;99708.81;;;6.87;67.34
52719;BME280;38616;42.140;24.760;2022-12-07T05:26:08;99707.69;;;6.61;69.08
52719;BME280;38616;42.140;24.760;2022-12-07T05:28:34;99709.44;;;6.28;70.72
52719;BME280;38616;42.140;24.760;2022-12-07T05:30:59;99713.28;;;6.54;70.81
52719;BME280;38616;42.140;24.760;2022-12-07T05:33:25;99708.31;;;6.68;69.58
52719;BME280;38616;42.140;24.760;2022-12-07T05:35:50;99716.72;;;6.72;70.52
52719;BME280;38616;42.140;24.760;2022-12-07T05:38:15;99715.91;;;6.93;69.77
52719;BME280;38616;42.140;24.760;2022-12-07T05:40:41;99722.72;;;7.01;68.92
52719;BME280;38616;42.140;24.760;2022-12-07T05:43:06;99716.53;;;7.01;68.72
52719;BME280;38616;42.140;24.760;2022-12-07T05:45:32;99712.84;;;7.12;68.62
52719;BME280;38616;42.140;24.760;2022-12-07T05:47:57;99700.78;;;7.20;67.99
52719;BME280;38616;42.140;24.760;2022-12-07T05:50:22;99713.78;;;7.23;67.93
52719;BME280;38616;42.140;24.760;2022-12-07T05:52:48;99703.66;;;7.13;68.44
52719;BME280;38616;42.140;24.760;2022-12-07T05:55:13;99707.69;;;7.10;68.86
52719;BME280;38616;42.140;24.760;2022-12-07T05:57:39;99703.16;;;7.16;68.64
52719;BME280;38616;42.140;24.760;2022-12-07T06:00:05;99706.56;;;7.06;68.73
52719;BME280;38616;42.140;24.760;2022-12-07T06:02:30;99723.63;;;7.12;68.75
52719;BME280;38616;42.140;24.760;2022-12-07T06:04:56;99715.09;;;7.20;68.17
52719;BME280;38616;42.140;24.760;2022-12-07T06:07:21;99717.31;;;7.29;67.31
52719;BME280;38616;42.140;24.760;2022-12-07T06:09:46;99721.19;;;6.83;68.85
52719;BME280;38616;42.140;24.760;2022-12-07T06:12:12;99714.84;;;6.94;69.02
52719;BME280;38616;42.140;24.760;2022-12-07T06:14:57;99718.16;;;7.02;69.24
52719;BME280;38616;42.140;24.760;2022-12-07T06:17:23;99721.94;;;7.28;68.34
52719;BME280;38616;42.140;24.760;2022-12-07T06:19:49;99726.09;;;7.14;68.18
52719;BME280;38616;42.140;24.760;2022-12-07T06:22:14;99723.94;;;6.88;69.14
52719;BME280;38616;42.140;24.760;2022-12-07T06:24:41;99724.63;;;7.01;68.83
52719;BME280;38616;42.140;24.760;2022-12-07T06:27:07;99721.50;;;7.14;68.77
52719;BME280;38616;42.140;24.760;2022-12-07T06:29:32;99725.84;;;7.15;69.12
52719;BME280;38616;42.140;24.760;2022-12-07T06:31:58;99726.56;;;7.33;68.03
52719;BME280;38616;42.140;24.760;2022-12-07T06:34:24;99722.13;;;7.21;68.22
52719;BME280;38616;42.140;24.760;2022-12-07T06:36:50;99732.16;;;6.76;69.28
52719;BME280;38616;42.140;24.760;2022-12-07T06:39:23;99732.09;;;6.93;69.09
52719;BME280;38616;42.140;24.760;2022-12-07T06:41:49;99732.09;;;6.93;68.21
52719;BME280;38616;42.140;24.760;2022-12-07T06:44:16;99739.75;;;7.02;68.99
52719;BME280;38616;42.140;24.760;2022-12-07T06:46:42;99737.09;;;7.07;69.01
52719;BME280;38616;42.140;24.760;2022-12-07T06:49:07;99723.28;;;7.03;68.68
52719;BME280;38616;42.140;24.760;2022-12-07T06:51:33;99747.72;;;7.14;68.39
52719;BME280;38616;42.140;24.760;2022-12-07T06:54:04;99739.28;;;7.32;68.30
52719;BME280;38616;42.140;24.760;2022-12-07T06:56:30;99729.81;;;7.35;68.27
52719;BME280;38616;42.140;24.760;2022-12-07T06:58:55;99730.78;;;7.51;67.28
52719;BME280;38616;42.140;24.760;2022-12-07T07:01:21;99731.41;;;7.63;67.41
52719;BME280;38616;42.140;24.760;2022-12-07T07:03:47;99724.19;;;7.69;66.16
52719;BME280;38616;42.140;24.760;2022-12-07T07:06:13;99730.06;;;7.61;67.00
52719;BME280;38616;42.140;24.760;2022-12-07T07:08:39;99724.38;;;7.62;66.88
52719;BME280;38616;42.140;24.760;2022-12-07T07:11:05;99712.81;;;7.67;67.35
52719;BME280;38616;42.140;24.760;2022-12-07T07:13:31;99715.81;;;7.71;66.61
52719;BME280;38616;42.140;24.760;2022-12-07T07:15:57;99720.34;;;7.97;65.62
52719;BME280;38616;42.140;24.760;2022-12-07T07:18:23;99720.06;;;7.99;65.86
52719;BME280;38616;42.140;24.760;2022-12-07T07:20:50;99725.75;;;7.97;65.54
52719;BME280;38616;42.140;24.760;2022-12-07T07:23:15;99720.56;;;7.91;66.19
52719;BME280;38616;42.140;24.760;2022-12-07T07:25:41;99729.16;;;7.82;66.75
52719;BME280;38616;42.140;24.760;2022-12-07T07:28:06;99733.50;;;7.83;66.67
52719;BME280;38616;42.140;24.760;2022-12-07T07:30:32;99717.59;;;7.92;66.75
52719;BME280;38616;42.140;24.760;2022-12-07T07:32:58;99716.34;;;8.10;66.06
52719;BME280;38616;42.140;24.760;2022-12-07T07:35:25;99719.69;;;8.23;65.91
52719;BME280;38616;42.140;24.760;2022-12-07T07:37:51;99721.31;;;8.24;66.37
52719;BME280;38616;42.140;24.760;2022-12-07T07:40:16;99722.94;;;8.25;66.38
52719;BME280;38616;42.140;24.760;2022-12-07T07:42:41;99730.28;;;8.30;65.74
52719;BME280;38616;42.140;24.760;2022-12-07T07:45:07;99733.31;;;8.38;65.74
52719;BME280;38616;42.140;24.760;2022-12-07T07:47:33;99733.59;;;8.42;65.86
52719;BME280;38616;42.140;24.760;2022-12-07T07:49:59;99739.31;;;8.46;65.33
52719;BME280;38616;42.140;24.760;2022-12-07T07:52:24;99739.91;;;8.53;65.35
52719;BME280;38616;42.140;24.760;2022-12-07T07:54:50;99738.47;;;8.45;65.02
52719;BME280;38616;42.140;24.760;2022-12-07T07:57:16;99737.09;;;8.37;65.03
52719;BME280;38616;42.140;24.760;2022-12-07T07:59:42;99734.94;;;8.39;64.78
52719;BME280;38616;42.140;24.760;2022-12-07T08:02:14;99745.03;;;8.49;65.14
52719;BME280;38616;42.140;24.760;2022-12-07T08:04:39;99741.84;;;8.63;64.51
52719;BME280;38616;42.140;24.760;2022-12-07T08:07:05;99737.56;;;8.72;64.55
52719;BME280;38616;42.140;24.760;2022-12-07T08:09:30;99731.97;;;9.05;63.61
52719;BME280;38616;42.140;24.760;2022-12-07T08:11:55;99738.47;;;8.98;63.61
52719;BME280;38616;42.140;24.760;2022-12-07T08:14:21;99729.44;;;8.72;64.49
52719;BME280;38616;42.140;24.760;2022-12-07T08:16:46;99734.66;;;8.99;63.71
52719;BME280;38616;42.140;24.760;2022-12-07T08:19:12;99728.19;;;9.11;63.80
52719;BME280;38616;42.140;24.760;2022-12-07T08:21:37;99727.97;;;9.18;63.64
52719;BME280;38616;42.140;24.760;2022-12-07T08:24:03;99733.13;;;9.24;63.60
52719;BME280;38616;42.140;24.760;2022-12-07T08:26:28;99731.22;;;9.30;63.55
52719;BME280;38616;42.140;24.760;2022-12-07T08:28:53;99727.91;;;9.02;64.44
52719;BME280;38616;42.140;24.760;2022-12-07T08:31:19;99729.81;;;9.01;65.25
52719;BME280;38616;42.140;24.760;2022-12-07T08:33:46;99725.00;;;9.29;64.62
52719;BME280;38616;42.140;24.760;2022-12-07T08:36:12;99731.53;;;9.44;63.98
52719;BME280;38616;42.140;24.760;2022-12-07T08:38:39;99725.00;;;9.29;64.79
52719;BME280;38616;42.140;24.760;2022-12-07T08:41:06;99733.59;;;9.06;65.26
52719;BME280;38616;42.140;24.760;2022-12-07T08:43:32;99719.56;;;9.29;64.88
52719;BME280;38616;42.140;24.760;2022-12-07T08:46:16;99721.19;;;9.30;64.77
52719;BME280;38616;42.140;24.760;2022-12-07T08:48:48;99727.44;;;9.21;64.47
52719;BME280;38616;42.140;24.760;2022-12-07T08:51:15;99712.47;;;9.08;65.50
52719;BME280;38616;42.140;24.760;2022-12-07T08:53:41;99705.19;;;9.39;64.47
52719;BME280;38616;42.140;24.760;2022-12-07T08:56:08;99710.63;;;9.39;64.33
52719;BME280;38616;42.140;24.760;2022-12-07T08:58:34;99712.03;;;9.68;64.10
52719;BME280;38616;42.140;24.760;2022-12-07T09:01:00;99715.53;;;9.63;64.06
52719;BME280;38616;42.140;24.760;2022-12-07T09:03:26;99704.41;;;9.44;64.12
52719;BME280;38616;42.140;24.760;2022-12-07T09:05:52;99704.13;;;9.61;64.30
52719;BME280;38616;42.140;24.760;2022-12-07T09:08:19;99699.25;;;9.84;63.67
52719;BME280;38616;42.140;24.760;2022-12-07T09:10:44;99695.69;;;9.94;63.53
52719;BME280;38616;42.140;24.760;2022-12-07T09:13:10;99686.47;;;10.05;62.92
52719;BME280;38616;42.140;24.760;2022-12-07T09:15:35;99677.44;;;10.20;62.29
52719;BME280;38616;42.140;24.760;2022-12-07T09:18:01;99676.06;;;10.33;61.97
52719;BME280;38616;42.140;24.760;2022-12-07T09:20:26;99661.41;;;10.44;61.51
52719;BME280;38616;42.140;24.760;2022-12-07T09:22:52;99662.91;;;10.66;60.83
52719;BME280;38616;42.140;24.760;2022-12-07T09:25:17;99667.22;;;9.96;62.41
52719;BME280;38616;42.140;24.760;2022-12-07T09:27:42;99658.56;;;9.73;63.14
52719;BME280;38616;42.140;24.760;2022-12-07T09:30:08;99665.31;;;9.81;63.35
52719;BME280;38616;42.140;24.760;2022-12-07T09:32:34;99660.63;;;10.18;62.65
52719;BME280;38616;42.140;24.760;2022-12-07T09:34:59;99644.84;;;10.41;62.13
52719;BME280;38616;42.140;24.760;2022-12-07T09:37:24;99650.03;;;10.22;62.76
52719;BME280;38616;42.140;24.760;2022-12-07T09:39:50;99645.25;;;9.72;63.00
52719;BME280;38616;42.140;24.760;2022-12-07T09:44:53;99635.69;;;10.11;62.93
52719;BME280;38616;42.140;24.760;2022-12-07T09:47:18;99629.03;;;10.53;61.34
52719;BME280;38616;42.140;24.760;2022-12-07T09:49:44;99619.72;;;10.70;60.69
52719;BME280;38616;42.140;24.760;2022-12-07T09:52:19;99619.78;;;10.59;60.78
52719;BME280;38616;42.140;24.760;2022-12-07T09:54:48;99618.75;;;10.45;61.32
52719;BME280;38616;42.140;24.760;2022-12-07T09:57:15;99616.56;;;10.47;61.53
52719;BME280;38616;42.140;24.760;2022-12-07T09:59:40;99616.88;;;10.45;61.14
52719;BME280;38616;42.140;24.760;2022-12-07T10:02:37;99610.34;;;10.46;61.37
52719;BME280;38616;42.140;24.760;2022-12-07T10:05:05;99613.13;;;10.20;61.82
52719;BME280;38616;42.140;24.760;2022-12-07T10:07:31;99613.44;;;10.14;62.51
52719;BME280;38616;42.140;24.760;2022-12-07T10:09:57;99618.25;;;10.27;62.57
52719;BME280;38616;42.140;24.760;2022-12-07T10:12:22;99608.97;;;10.39;61.83
52719;BME280;38616;42.140;24.760;2022-12-07T10:15:04;99602.81;;;10.23;62.36
52719;BME280;38616;42.140;24.760;2022-12-07T10:17:35;99601.50;;;10.15;62.26
52719;BME280;38616;42.140;24.760;2022-12-07T10:20:23;99614.31;;;9.83;63.60
52719;BME280;38616;42.140;24.760;2022-12-07T10:23:16;99599.56;;;10.15;62.91
52719;BME280;38616;42.140;24.760;2022-12-07T10:25:42;99593.91;;;10.12;62.57
52719;BME280;38616;42.140;24.760;2022-12-07T10:30:52;99575.06;;;10.31;62.36
52719;BME280;38616;42.140;24.760;2022-12-07T10:33:36;99578.81;;;10.51;62.33
52719;BME280;38616;42.140;24.760;2022-12-07T10:36:26;99582.63;;;10.49;61.95
52719;BME280;38616;42.140;24.760;2022-12-07T10:39:02;99570.94;;;10.49;62.10
52719;BME280;38616;42.140;24.760;2022-12-07T10:41:28;99569.00;;;10.55;61.76
52719;BME280;38616;42.140;24.760;2022-12-07T10:43:56;99576.69;;;10.42;62.35
52719;BME280;38616;42.140;24.760;2022-12-07T10:49:55;99588.16;;;11.14;60.72
52719;BME280;38616;42.140;24.760;2022-12-07T11:00:25;99576.19;;;11.15;59.47
52719;BME280;38616;42.140;24.760;2022-12-07T11:08:53;99553.28;;;10.91;60.69
52719;BME280;38616;42.140;24.760;2022-12-07T11:11:44;99554.50;;;10.70;61.58
52719;BME280;38616;42.140;24.760;2022-12-07T11:25:54;99548.06;;;11.54;59.63
52719;BME280;38616;42.140;24.760;2022-12-07T11:31:24;99538.94;;;11.45;59.14
52719;BME280;38616;42.140;24.760;2022-12-07T11:36:48;99528.13;;;11.40;59.26
52719;BME280;38616;42.140;24.760;2022-12-07T11:41:45;99529.28;;;11.58;59.50
52719;BME280;38616;42.140;24.760;2022-12-07T11:46:55;99520.81;;;11.59;59.35
52719;BME280;38616;42.140;24.760;2022-12-07T11:49:29;99514.53;;;11.64;58.90
52719;BME280;38616;42.140;24.760;2022-12-07T11:52:02;99524.94;;;11.57;59.22
52719;BME280;38616;42.140;24.760;2022-12-07T11:54:34;99515.94;;;11.56;59.25
52719;BME280;38616;42.140;24.760;2022-12-07T11:57:04;99499.97;;;11.74;58.90
52719;BME280;38616;42.140;24.760;2022-12-07T12:00:03;99510.28;;;11.52;59.20
52719;BME280;38616;42.140;24.760;2022-12-07T12:05:22;99500.88;;;11.69;59.07
52719;BME280;38616;42.140;24.760;2022-12-07T12:07:58;99493.84;;;11.63;59.10
52719;BME280;38616;42.140;24.760;2022-12-07T12:10:42;99496.97;;;11.75;59.05
52719;BME280;38616;42.140;24.760;2022-12-07T12:16:05;99484.03;;;11.86;57.83
52719;BME280;38616;42.140;24.760;2022-12-07T12:18:58;99482.88;;;11.92;58.09
52719;BME280;38616;42.140;24.760;2022-12-07T12:21:28;99486.38;;;11.74;58.51
52719;BME280;38616;42.140;24.760;2022-12-07T12:24:02;99477.63;;;11.77;58.71
52719;BME280;38616;42.140;24.760;2022-12-07T12:26:32;99484.47;;;11.74;58.56
52719;BME280;38616;42.140;24.760;2022-12-07T12:29:05;99486.78;;;11.86;58.42
52719;BME280;38616;42.140;24.760;2022-12-07T12:31:34;99493.56;;;11.89;58.23
52719;BME280;38616;42.140;24.760;2022-12-07T12:34:04;99481.31;;;11.86;58.23
52719;BME280;38616;42.140;24.760;2022-12-07T12:39:17;99473.00;;;12.02;57.98
52719;BME280;38616;42.140;24.760;2022-12-07T12:46:58;99468.81;;;11.85;58.12
52719;BME280;38616;42.140;24.760;2022-12-07T12:51:54;99465.25;;;11.65;58.32
52719;BME280;38616;42.140;24.760;2022-12-07T12:54:26;99453.03;;;11.63;58.43
52719;BME280;38616;42.140;24.760;2022-12-07T12:59:31;99457.03;;;11.22;59.48
52719;BME280;38616;42.140;24.760;2022-12-07T13:02:21;99456.69;;;11.53;59.15
52719;BME280;38616;42.140;24.760;2022-12-07T13:04:49;99458.53;;;11.58;58.53
52719;BME280;38616;42.140;24.760;2022-12-07T13:15:37;99447.59;;;11.63;58.55
52719;BME280;38616;42.140;24.760;2022-12-07T13:21:39;99454.03;;;11.72;58.04
52719;BME280;38616;42.140;24.760;2022-12-07T13:29:12;99452.75;;;11.64;58.57
52719;BME280;38616;42.140;24.760;2022-12-07T13:31:54;99452.28;;;11.81;58.34
52719;BME280;38616;42.140;24.760;2022-12-07T13:34:32;99456.34;;;11.60;58.38
52719;BME280;38616;42.140;24.760;2022-12-07T13:39:33;99453.09;;;11.58;58.65
52719;BME280;38616;42.140;24.760;2022-12-07T13:42:09;99449.56;;;11.33;59.46
52719;BME280;38616;42.140;24.760;2022-12-07T13:44:40;99465.00;;;11.43;59.61
52719;BME280;38616;42.140;24.760;2022-12-07T13:47:44;99453.81;;;11.44;59.79
52719;BME280;38616;42.140;24.760;2022-12-07T13:50:29;99458.97;;;11.46;59.53
52719;BME280;38616;42.140;24.760;2022-12-07T13:52:56;99449.81;;;11.36;60.12
52719;BME280;38616;42.140;24.760;2022-12-07T13:55:22;99457.72;;;11.57;59.12
52719;BME280;38616;42.140;24.760;2022-12-07T13:57:51;99464.94;;;11.48;59.58
52719;BME280;38616;42.140;24.760;2022-12-07T14:00:19;99461.09;;;11.49;59.41
52719;BME280;38616;42.140;24.760;2022-12-07T14:02:55;99464.69;;;11.44;59.54
52719;BME280;38616;42.140;24.760;2022-12-07T14:05:30;99457.78;;;11.52;59.28
52719;BME280;38616;42.140;24.760;2022-12-07T14:08:44;99464.03;;;11.28;59.85
52719;BME280;38616;42.140;24.760;2022-12-07T14:18:41;99458.66;;;11.23;60.16
52719;BME280;38616;42.140;24.760;2022-12-07T14:23:36;99463.94;;;11.38;59.75
52719;BME280;38616;42.140;24.760;2022-12-07T14:26:13;99465.16;;;11.27;60.35
52719;BME280;38616;42.140;24.760;2022-12-07T14:28:40;99457.41;;;11.40;59.94
52719;BME280;38616;42.140;24.760;2022-12-07T14:31:14;99460.19;;;11.34;60.23
52719;BME280;38616;42.140;24.760;2022-12-07T14:33:40;99461.09;;;11.24;60.90
52719;BME280;38616;42.140;24.760;2022-12-07T14:36:09;99457.50;;;11.29;60.58
52719;BME280;38616;42.140;24.760;2022-12-07T14:38:35;99453.75;;;11.25;60.65
52719;BME280;38616;42.140;24.760;2022-12-07T14:41:00;99457.00;;;11.27;60.66
52719;BME280;38616;42.140;24.760;2022-12-07T14:43:45;99461.50;;;11.37;60.25
52719;BME280;38616;42.140;24.760;2022-12-07T14:46:10;99459.13;;;11.30;60.53
52719;BME280;38616;42.140;24.760;2022-12-07T14:48:36;99462.00;;;11.15;61.08
52719;BME280;38616;42.140;24.760;2022-12-07T14:51:02;99461.19;;;11.14;61.05
52719;BME280;38616;42.140;24.760;2022-12-07T14:53:34;99456.03;;;11.13;61.36
52719;BME280;38616;42.140;24.760;2022-12-07T14:56:00;99459.91;;;11.06;61.12
52719;BME280;38616;42.140;24.760;2022-12-07T14:58:26;99467.06;;;10.97;61.47
52719;BME280;38616;42.140;24.760;2022-12-07T15:00:51;99459.97;;;11.01;61.34
52719;BME280;38616;42.140;24.760;2022-12-07T15:03:16;99452.63;;;11.02;61.28
52719;BME280;38616;42.140;24.760;2022-12-07T15:05:42;99455.44;;;10.91;62.00
52719;BME280;38616;42.140;24.760;2022-12-07T15:08:12;99457.53;;;11.00;61.99
52719;BME280;38616;42.140;24.760;2022-12-07T15:10:38;99450.47;;;10.99;61.88
52719;BME280;38616;42.140;24.760;2022-12-07T15:13:06;99449.69;;;10.93;61.89